CheckWX is a tool to help pilots better visualize weather data.  It is not intended as a substitute for an official pre-flight weather briefing.

00:20:42 UTC

KORD TAF
Chicago O'hare International Airport
Chicago, Illinois, USA
KORD 222320Z 2300/2406 25015G25KT P6SM BKN040 FM230300 25012G20KT P6SM BKN040 FM230600 24012KT P6SM FEW040 FM231500 22012G17KT P6SM BKN100 PROB30 2315/2319 -SHRA BKN060 FM231900 20010KT P6SM OVC060 FM240200 33009KT P6SM BKN035

Oct-23@
00:00 UTC

Oct-23 @ 00:00 UTC

Oct-23@
03:00 UTC

Oct-23 @ 03:00 UTC

KORD 222320Z 2300/2406 25015G25KT P6SM BKN040
Wind
  • 250° at 15 KTS
  • {Gusting to 25 KTS
Cloud Levels
  • Broken at 4,000' AGL

Oct-23@
03:00 UTC

Oct-23 @ 03:00 UTC

Oct-23@
06:00 UTC

Oct-23 @ 06:00 UTC

FM230300 25012G20KT P6SM BKN040

From

From Standard forecast or significant change

Wind
  • 250° at 12 KTS
  • {Gusting to 20 KTS
Cloud Levels
  • Broken at 4,000' AGL

Oct-23@
06:00 UTC

Oct-23 @ 06:00 UTC

Oct-23@
15:00 UTC

Oct-23 @ 15:00 UTC

FM230600 24012KT P6SM FEW040

From

From Standard forecast or significant change

Wind
  • 240° at 12 KTS
Cloud Levels
  • Few at 4,000' AGL

Oct-23@
15:00 UTC

Oct-23 @ 15:00 UTC

Oct-23@
19:00 UTC

Oct-23 @ 19:00 UTC

PROB30 2315/2319 -SHRA BKN060

Probable - 30% Likelihood

Probable - 30% Likelihood during this time.

Conditions
Light Rain
Cloud Levels
  • Broken at 6,000' AGL

Oct-23@
15:00 UTC

Oct-23 @ 15:00 UTC

Oct-23@
19:00 UTC

Oct-23 @ 19:00 UTC

FM231500 22012G17KT P6SM BKN100

From

From Standard forecast or significant change

Wind
  • 220° at 12 KTS
  • {Gusting to 17 KTS
Cloud Levels
  • Broken at 10,000' AGL

Oct-23@
19:00 UTC

Oct-23 @ 19:00 UTC

Oct-24@
02:00 UTC

Oct-24 @ 02:00 UTC

FM231900 20010KT P6SM OVC060

From

From Standard forecast or significant change

Wind
  • 200° at 10 KTS
Cloud Levels
  • Overcast at 6,000' AGL

Oct-24@
02:00 UTC

Oct-24 @ 02:00 UTC

Oct-24@
06:00 UTC

Oct-24 @ 06:00 UTC

FM240200 33009KT P6SM BKN035

From

From Standard forecast or significant change

Wind
  • 330° at 9 KTS
Cloud Levels
  • Broken at 3,500' AGL